createdAt,value
2019-04-30T00:01:14.704Z,56.48
2019-04-30T00:03:55.745Z,56.50
2019-04-30T00:06:34.426Z,56.86
2019-04-30T00:09:01.887Z,57.18
2019-04-30T00:11:36.362Z,57.25
2019-04-30T00:14:09.193Z,57.31
2019-04-30T00:16:41.863Z,57.27
2019-04-30T00:19:15.732Z,57.70
2019-04-30T00:21:57.099Z,57.51
2019-04-30T00:24:23.178Z,57.98
2019-04-30T00:26:56.889Z,58.12
2019-04-30T00:29:31.004Z,58.36
2019-04-30T00:32:07.885Z,58.66
2019-04-30T00:34:40.151Z,58.54
2019-04-30T00:37:14.007Z,58.95
2019-04-30T00:39:51.153Z,59.38
2019-04-30T00:42:24.285Z,59.59
2019-04-30T00:44:59.570Z,59.50
2019-04-30T00:47:30.084Z,59.47
2019-04-30T00:50:02.777Z,59.25
2019-04-30T00:52:37.376Z,59.99
2019-04-30T00:55:11.497Z,59.98
2019-04-30T00:57:47.391Z,60.18
2019-04-30T01:00:25.999Z,60.41
2019-04-30T01:03:09.267Z,60.65
2019-04-30T01:05:43.864Z,61.53
2019-04-30T01:08:15.421Z,61.27
2019-04-30T01:10:48.376Z,61.24
2019-04-30T01:13:21.149Z,61.75
2019-04-30T01:15:53.833Z,61.58
2019-04-30T01:18:28.604Z,61.41
2019-04-30T01:21:02.887Z,61.93
2019-04-30T01:23:35.241Z,61.89
2019-04-30T01:26:08.802Z,61.70
2019-04-30T01:28:41.669Z,61.76
2019-04-30T01:31:14.306Z,61.74
2019-04-30T01:33:48.802Z,61.67
2019-04-30T01:36:21.311Z,62.02
2019-04-30T01:38:53.977Z,61.86
2019-04-30T01:41:30.208Z,62.33
2019-04-30T01:44:03.805Z,63.86
2019-04-30T01:46:35.243Z,58.02
2019-04-30T01:49:08.897Z,50.85
2019-04-30T01:51:41.540Z,52.21
2019-04-30T01:54:21.139Z,53.68
2019-04-30T01:56:54.002Z,55.01
2019-04-30T01:59:29.119Z,55.83
2019-04-30T02:02:01.815Z,56.62
2019-04-30T02:04:34.494Z,57.65
2019-04-30T02:07:08.714Z,57.68
2019-04-30T02:09:41.494Z,58.01
2019-04-30T02:12:14.111Z,58.64
2019-04-30T02:14:46.882Z,59.43
2019-04-30T02:17:19.520Z,59.55
2019-04-30T02:19:56.565Z,60.25
2019-04-30T02:22:26.533Z,60.58
2019-04-30T02:24:59.241Z,60.40
2019-04-30T02:27:32.702Z,61.44
2019-04-30T02:30:11.210Z,61.44
2019-04-30T02:32:43.178Z,61.79
2019-04-30T02:35:21.647Z,61.92
2019-04-30T02:38:10.031Z,65.52
2019-04-30T02:40:43.139Z,56.94
2019-04-30T02:43:17.036Z,49.09
2019-04-30T02:45:51.617Z,51.16
2019-04-30T02:48:29.256Z,52.83
2019-04-30T02:51:04.354Z,54.21
2019-04-30T02:54:00.585Z,55.25
2019-04-30T02:56:33.922Z,55.86
2019-04-30T02:59:06.593Z,56.93
2019-04-30T03:01:40.196Z,57.95
2019-04-30T03:04:13.487Z,58.91
2019-04-30T03:06:46.171Z,59.80
2019-04-30T03:09:20.394Z,60.21
2019-04-30T03:11:53.169Z,60.52
2019-04-30T03:14:25.840Z,61.18
2019-04-30T03:17:00.390Z,61.88
2019-04-30T03:19:40.528Z,65.08
2019-04-30T03:22:14.796Z,53.68
2019-04-30T03:24:50.103Z,48.99
2019-04-30T03:27:24.491Z,50.86
2019-04-30T03:29:56.061Z,52.69
2019-04-30T03:32:31.698Z,53.88
2019-04-30T03:35:03.700Z,55.08
2019-04-30T03:37:39.476Z,56.00
2019-04-30T03:40:13.194Z,57.21
2019-04-30T03:42:45.905Z,57.70
2019-04-30T03:45:20.441Z,58.47
2019-04-30T03:47:53.019Z,59.38
2019-04-30T03:50:25.723Z,60.56
2019-04-30T03:53:00.481Z,61.16
2019-04-30T03:55:32.784Z,61.28
2019-04-30T03:58:05.454Z,65.56
2019-04-30T04:00:42.247Z,55.19
2019-04-30T04:03:14.705Z,50.24
2019-04-30T04:05:49.767Z,51.87
2019-04-30T04:08:29.988Z,53.58
2019-04-30T04:11:04.265Z,54.75
2019-04-30T04:13:39.911Z,55.95
2019-04-30T04:16:11.679Z,57.66
2019-04-30T04:18:44.405Z,58.33
2019-04-30T04:21:17.324Z,58.91
2019-04-30T04:23:50.981Z,59.78
2019-04-30T04:26:23.675Z,60.72
2019-04-30T04:28:59.177Z,61.60
2019-04-30T04:31:30.601Z,63.26
2019-04-30T04:34:03.302Z,60.31
2019-04-30T04:36:36.133Z,53.35
2019-04-30T04:39:10.233Z,54.57
2019-04-30T04:41:44.335Z,55.65
2019-04-30T04:44:19.684Z,56.62
2019-04-30T04:46:52.792Z,58.04
2019-04-30T04:49:25.459Z,58.93
2019-04-30T04:51:59.299Z,59.84
2019-04-30T04:54:32.052Z,60.80
2019-04-30T04:57:16.985Z,60.24
2019-04-30T04:59:42.533Z,61.20
2019-04-30T05:02:32.368Z,62.15
2019-04-30T05:05:04.070Z,64.45
2019-04-30T05:07:36.739Z,57.85
2019-04-30T05:10:09.532Z,51.51
2019-04-30T05:12:42.299Z,53.08
2019-04-30T05:15:15.081Z,54.80
2019-04-30T05:17:49.429Z,56.28
2019-04-30T05:20:22.180Z,56.82
2019-04-30T05:22:54.871Z,57.49
2019-04-30T05:25:29.479Z,58.27
2019-04-30T05:28:02.889Z,58.82
2019-04-30T05:30:35.606Z,59.25
2019-04-30T05:33:08.866Z,59.74
2019-04-30T05:35:41.732Z,60.34
2019-04-30T05:38:14.413Z,59.96
2019-04-30T05:40:47.208Z,60.66
2019-04-30T05:43:19.874Z,60.56
2019-04-30T05:45:52.499Z,59.96
2019-04-30T05:48:25.262Z,60.43
2019-04-30T05:50:59.120Z,61.00
2019-04-30T05:53:32.227Z,60.84
2019-04-30T05:56:05.627Z,60.22
2019-04-30T05:58:39.706Z,60.14
2019-04-30T06:01:12.838Z,60.79
2019-04-30T06:03:45.530Z,60.74
2019-04-30T06:06:19.537Z,60.92
2019-04-30T06:09:04.066Z,60.18
2019-04-30T06:11:29.999Z,60.25
2019-04-30T06:14:20.405Z,60.36
2019-04-30T06:17:06.908Z,59.80
2019-04-30T06:19:39.584Z,58.88
2019-04-30T06:22:12.469Z,59.33
2019-04-30T06:24:45.244Z,59.13
2019-04-30T06:27:19.165Z,58.92
2019-04-30T06:29:52.139Z,59.03
2019-04-30T06:32:24.905Z,58.15
2019-04-30T06:34:59.299Z,58.15
2019-04-30T06:37:32.219Z,58.16
2019-04-30T06:40:09.364Z,57.66
2019-04-30T06:42:42.599Z,58.35
2019-04-30T06:45:16.501Z,57.27
2019-04-30T06:47:49.702Z,57.39
2019-04-30T06:50:23.000Z,56.66
2019-04-30T06:52:58.785Z,55.85
2019-04-30T06:55:30.954Z,56.85
2019-04-30T06:58:14.160Z,55.96
2019-04-30T07:00:40.533Z,55.13
2019-04-30T07:03:13.354Z,54.87
2019-04-30T07:05:46.021Z,54.54
2019-04-30T07:08:40.504Z,54.05
2019-04-30T07:11:15.649Z,52.68
2019-04-30T07:13:52.312Z,52.87
2019-04-30T07:16:24.636Z,54.11
2019-04-30T07:18:58.614Z,53.23
2019-04-30T07:21:31.811Z,51.93
2019-04-30T07:24:04.896Z,53.64
2019-04-30T07:26:38.884Z,52.01
2019-04-30T07:29:11.834Z,52.86
2019-04-30T07:31:44.557Z,51.62
2019-04-30T07:34:19.492Z,52.05
2019-04-30T07:39:29.289Z,50.57
2019-04-30T07:42:00.900Z,50.15
2019-04-30T07:44:36.613Z,49.86
2019-04-30T07:47:09.648Z,49.72
2019-04-30T07:49:51.572Z,50.93
2019-04-30T07:52:17.179Z,49.89
2019-04-30T07:54:51.873Z,48.41
2019-04-30T07:57:24.405Z,47.57
2019-04-30T07:59:57.144Z,48.14
2019-04-30T08:02:38.020Z,48.30
2019-04-30T08:05:10.612Z,46.33
2019-04-30T08:07:43.442Z,45.66
2019-04-30T08:10:18.644Z,46.77
2019-04-30T08:12:51.853Z,42.60
2019-04-30T08:15:25.188Z,43.81
2019-04-30T08:18:03.486Z,45.46
2019-04-30T08:20:34.801Z,43.67
2019-04-30T08:23:20.157Z,45.03
2019-04-30T08:25:42.457Z,44.35
2019-04-30T08:28:15.140Z,43.94
2019-04-30T08:30:48.965Z,44.65
2019-04-30T08:33:21.944Z,43.82
2019-04-30T08:35:54.722Z,43.90
2019-04-30T08:38:27.396Z,43.17
2019-04-30T08:41:00.808Z,44.04
2019-04-30T08:43:33.875Z,44.27
2019-04-30T08:46:06.674Z,42.39
2019-04-30T08:48:47.921Z,41.77
2019-04-30T08:51:14.355Z,42.04
2019-04-30T08:53:48.651Z,41.63
2019-04-30T08:56:23.629Z,42.04
2019-04-30T08:58:56.403Z,41.88
2019-04-30T09:01:29.544Z,42.35
2019-04-30T09:04:02.373Z,39.64
2019-04-30T09:06:35.070Z,39.83
2019-04-30T09:09:11.125Z,39.57
2019-04-30T09:11:54.753Z,38.97
2019-04-30T09:14:18.675Z,38.43
2019-04-30T09:16:51.623Z,37.50
2019-04-30T09:19:24.299Z,36.73
2019-04-30T09:21:59.107Z,35.58
2019-04-30T09:24:32.316Z,36.80
2019-04-30T09:27:10.587Z,37.04
2019-04-30T09:29:44.532Z,34.47
2019-04-30T09:32:16.536Z,34.49
2019-04-30T09:34:49.370Z,33.57
2019-04-30T09:37:22.163Z,34.31
2019-04-30T09:39:54.784Z,33.19
2019-04-30T09:42:29.490Z,34.58
2019-04-30T09:45:02.955Z,32.06
2019-04-30T09:47:35.740Z,31.82
2019-04-30T09:50:09.186Z,33.88
2019-04-30T09:52:42.340Z,33.51
2019-04-30T09:55:15.628Z,33.43
2019-04-30T09:57:48.809Z,32.57
2019-04-30T10:00:22.099Z,32.86
2019-04-30T10:02:55.671Z,32.14
2019-04-30T10:05:29.372Z,31.55
2019-04-30T10:08:02.199Z,30.96
2019-04-30T10:10:36.504Z,31.65
2019-04-30T10:13:09.295Z,32.89
2019-04-30T10:15:43.511Z,30.53
2019-04-30T10:18:16.787Z,31.53
2019-04-30T10:20:49.420Z,31.79
2019-04-30T10:23:22.150Z,31.93
2019-04-30T10:25:55.951Z,30.65
2019-04-30T10:28:29.172Z,30.16
2019-04-30T10:31:03.771Z,29.81
2019-04-30T10:33:38.470Z,29.77
2019-04-30T10:36:11.481Z,29.81
2019-04-30T10:38:44.166Z,29.11
2019-04-30T10:41:18.619Z,29.46
2019-04-30T10:43:51.158Z,30.35
2019-04-30T10:46:23.793Z,30.64
2019-04-30T10:48:56.637Z,29.90
2019-04-30T10:51:29.312Z,28.80
2019-04-30T10:54:02.034Z,28.98
2019-04-30T10:56:35.692Z,28.50
2019-04-30T10:59:09.135Z,28.97
2019-04-30T11:01:41.769Z,28.72
2019-04-30T11:04:18.122Z,29.31
2019-04-30T11:06:50.814Z,28.57
2019-04-30T11:09:24.925Z,29.53
2019-04-30T11:11:59.360Z,28.10
2019-04-30T11:14:32.339Z,26.42
2019-04-30T11:17:05.290Z,27.14
2019-04-30T11:19:39.285Z,26.41
2019-04-30T11:22:12.238Z,26.65
2019-04-30T11:24:56.736Z,28.91
2019-04-30T11:27:20.683Z,27.53
2019-04-30T11:30:00.565Z,27.56
2019-04-30T11:32:28.801Z,28.24
2019-04-30T11:35:01.841Z,24.77
2019-04-30T11:37:34.467Z,24.73
2019-04-30T11:40:10.884Z,25.67
2019-04-30T11:42:43.578Z,26.62
2019-04-30T11:45:21.989Z,24.69
2019-04-30T11:47:54.675Z,25.36
2019-04-30T11:50:30.011Z,24.74
2019-04-30T11:53:19.471Z,23.67
2019-04-30T11:55:36.790Z,23.52
2019-04-30T11:58:21.086Z,22.77
2019-04-30T12:00:45.428Z,24.12
2019-04-30T12:03:19.283Z,23.39
2019-04-30T12:05:52.349Z,22.69
2019-04-30T12:08:29.448Z,21.75
2019-04-30T12:11:03.682Z,21.90
2019-04-30T12:13:36.506Z,20.34
2019-04-30T12:16:10.000Z,21.33
2019-04-30T12:18:42.683Z,20.81
2019-04-30T12:21:15.362Z,20.33
2019-04-30T12:23:48.041Z,21.97
2019-04-30T12:26:20.766Z,19.65
2019-04-30T12:28:53.515Z,19.98
2019-04-30T12:31:26.290Z,19.78
2019-04-30T12:33:58.975Z,19.36
2019-04-30T12:36:33.080Z,20.95
2019-04-30T12:39:07.133Z,19.42
2019-04-30T12:41:40.710Z,19.64
2019-04-30T12:44:13.574Z,19.36
2019-04-30T12:46:46.361Z,18.37
2019-04-30T12:49:19.146Z,18.07
2019-04-30T12:51:51.610Z,18.59
2019-04-30T12:54:25.941Z,18.41
2019-04-30T12:57:10.805Z,19.39
2019-04-30T12:59:42.131Z,18.65
2019-04-30T13:02:14.924Z,18.79
2019-04-30T13:04:49.323Z,18.42
2019-04-30T13:07:22.457Z,18.96
2019-04-30T13:09:56.203Z,19.00
2019-04-30T13:12:29.745Z,18.72
2019-04-30T13:15:02.940Z,18.17
2019-04-30T13:17:36.068Z,17.96
2019-04-30T13:20:18.624Z,17.89
2019-04-30T13:22:44.386Z,18.72
2019-04-30T13:25:28.180Z,17.22
2019-04-30T13:27:53.319Z,17.39
2019-04-30T13:30:30.182Z,17.19
2019-04-30T13:33:22.620Z,16.87
2019-04-30T13:35:55.992Z,16.91
2019-04-30T13:38:44.938Z,16.53
2019-04-30T13:41:14.315Z,15.63
2019-04-30T13:43:53.802Z,16.45
2019-04-30T13:46:28.367Z,15.42
2019-04-30T13:49:00.802Z,16.74
2019-04-30T13:51:33.491Z,15.71
2019-04-30T13:54:06.158Z,16.46
2019-04-30T13:56:39.696Z,16.56
2019-04-30T13:59:12.593Z,16.22
2019-04-30T14:01:45.221Z,15.40
2019-04-30T14:04:19.537Z,16.39
2019-04-30T14:07:09.926Z,14.83
2019-04-30T14:09:42.721Z,15.04
2019-04-30T14:12:15.393Z,15.58
2019-04-30T14:14:49.349Z,15.46
2019-04-30T14:17:22.176Z,14.66
2019-04-30T14:19:56.001Z,14.96
2019-04-30T14:22:28.620Z,14.45
2019-04-30T14:25:01.293Z,14.81
2019-04-30T14:27:33.925Z,14.81
2019-04-30T14:30:09.290Z,14.73
2019-04-30T14:32:42.262Z,14.49
2019-04-30T14:35:15.965Z,14.15
2019-04-30T14:37:49.578Z,13.79
2019-04-30T14:40:23.641Z,13.73
2019-04-30T14:42:59.598Z,13.78
2019-04-30T14:45:34.605Z,13.80
2019-04-30T14:48:12.909Z,13.72
2019-04-30T14:50:46.337Z,13.80
2019-04-30T14:53:26.464Z,13.69
2019-04-30T14:56:09.498Z,13.74
2019-04-30T14:58:55.640Z,13.28
2019-04-30T15:01:30.782Z,12.28
2019-04-30T15:04:03.873Z,12.72
2019-04-30T15:06:36.543Z,13.33
2019-04-30T15:09:11.075Z,13.17
2019-04-30T15:11:43.759Z,12.99
2019-04-30T15:14:17.242Z,12.85
2019-04-30T15:16:50.687Z,12.86
2019-04-30T15:19:23.431Z,12.87
2019-04-30T15:21:56.122Z,12.84
2019-04-30T15:24:39.357Z,13.38
2019-04-30T15:27:12.388Z,13.14
2019-04-30T15:29:45.103Z,12.98
2019-04-30T15:32:18.572Z,13.02
2019-04-30T15:34:51.693Z,13.06
2019-04-30T15:37:24.358Z,12.60
2019-04-30T15:39:59.044Z,12.40
2019-04-30T15:42:31.357Z,12.80
2019-04-30T15:45:04.034Z,12.51
2019-04-30T15:47:38.592Z,12.69
2019-04-30T15:50:13.029Z,12.21
2019-04-30T15:52:46.405Z,12.77
2019-04-30T15:55:19.045Z,13.03
2019-04-30T15:57:56.138Z,12.53
2019-04-30T16:00:31.295Z,12.68
2019-04-30T16:03:11.954Z,12.40
2019-04-30T16:05:46.210Z,12.74
2019-04-30T16:08:23.251Z,13.04
2019-04-30T16:11:01.033Z,12.94
2019-04-30T16:13:39.458Z,13.08
2019-04-30T16:16:13.283Z,12.93
2019-04-30T16:18:50.762Z,13.03
2019-04-30T16:21:23.435Z,13.43
2019-04-30T16:23:56.108Z,12.75
2019-04-30T16:26:29.132Z,12.73
2019-04-30T16:29:02.824Z,12.94
2019-04-30T16:31:35.615Z,12.77
2019-04-30T16:34:08.809Z,13.20
2019-04-30T16:36:41.578Z,13.07
2019-04-30T16:39:14.356Z,13.42
2019-04-30T16:41:49.566Z,13.57
2019-04-30T16:44:22.084Z,13.34
2019-04-30T16:46:54.762Z,13.47
2019-04-30T16:49:29.007Z,13.69
2019-04-30T16:52:01.973Z,13.79
2019-04-30T16:54:34.645Z,13.98
2019-04-30T16:57:07.531Z,13.96
2019-04-30T16:59:43.360Z,14.37
2019-04-30T17:02:16.058Z,14.71
2019-04-30T17:04:59.177Z,15.03
2019-04-30T17:07:40.145Z,15.11
2019-04-30T17:10:18.868Z,15.34
2019-04-30T17:13:09.313Z,15.79
2019-04-30T17:15:44.293Z,15.96
2019-04-30T17:18:18.928Z,17.02
2019-04-30T17:20:52.062Z,17.57
2019-04-30T17:23:24.739Z,17.90
2019-04-30T17:25:57.327Z,18.62
2019-04-30T17:28:30.046Z,19.37
2019-04-30T17:31:02.728Z,20.43
2019-04-30T17:33:35.412Z,20.14
2019-04-30T17:36:08.724Z,21.10
2019-04-30T17:38:42.414Z,22.09
2019-04-30T17:41:15.098Z,22.84
2019-04-30T17:43:49.454Z,23.32
2019-04-30T17:46:22.136Z,23.90
2019-04-30T17:48:54.860Z,24.55
2019-04-30T17:51:27.543Z,24.78
2019-04-30T17:54:13.401Z,24.80
2019-04-30T17:56:48.265Z,25.28
2019-04-30T17:59:20.939Z,25.58
2019-04-30T18:01:55.267Z,26.63
2019-04-30T18:04:29.553Z,26.51
2019-04-30T18:07:02.463Z,26.42
2019-04-30T18:09:36.274Z,27.70
2019-04-30T18:12:09.356Z,27.77
2019-04-30T18:14:42.487Z,27.67
2019-04-30T18:17:15.222Z,28.48
2019-04-30T18:19:49.765Z,29.58
2019-04-30T18:22:29.348Z,29.05
2019-04-30T18:25:06.761Z,29.58
2019-04-30T18:27:45.954Z,29.87
2019-04-30T18:30:19.012Z,30.11
2019-04-30T18:32:52.902Z,30.48
2019-04-30T18:35:25.668Z,30.59
2019-04-30T18:37:58.659Z,31.82
2019-04-30T18:40:31.862Z,32.29
2019-04-30T18:43:04.552Z,31.97
2019-04-30T18:45:39.594Z,32.97
2019-04-30T18:48:12.667Z,32.76
2019-04-30T18:50:45.291Z,33.44
2019-04-30T18:53:20.266Z,33.97
2019-04-30T18:55:53.063Z,35.68
2019-04-30T18:58:37.561Z,36.51
2019-04-30T19:01:00.069Z,36.60
2019-04-30T19:03:32.685Z,36.86
2019-04-30T19:06:08.615Z,38.15
2019-04-30T19:08:51.386Z,37.06
2019-04-30T19:11:32.899Z,38.18
2019-04-30T19:14:09.973Z,38.39
2019-04-30T19:17:00.170Z,37.74
2019-04-30T19:19:50.191Z,39.01
2019-04-30T19:22:22.923Z,38.13
2019-04-30T19:24:58.763Z,38.67
2019-04-30T19:27:29.928Z,39.01
2019-04-30T19:30:02.723Z,40.17
2019-04-30T19:32:36.102Z,40.42
2019-04-30T19:35:11.040Z,40.69
2019-04-30T19:37:43.716Z,40.44
2019-04-30T19:40:16.450Z,40.03
2019-04-30T19:42:50.915Z,40.40
2019-04-30T19:45:23.445Z,40.67
2019-04-30T19:47:56.378Z,40.97
2019-04-30T19:50:29.057Z,41.36
2019-04-30T19:53:01.736Z,41.32
2019-04-30T19:55:34.530Z,41.50
2019-04-30T19:58:07.905Z,42.14
2019-04-30T20:00:40.603Z,41.99
2019-04-30T20:03:13.216Z,42.85
2019-04-30T20:05:45.962Z,42.65
2019-04-30T20:08:19.843Z,42.65
2019-04-30T20:10:52.753Z,42.76
2019-04-30T20:13:33.899Z,44.39
2019-04-30T20:15:59.741Z,43.91
2019-04-30T20:18:32.370Z,44.63
2019-04-30T20:21:06.751Z,44.93
2019-04-30T20:23:39.418Z,44.87
2019-04-30T20:26:12.098Z,45.44
2019-04-30T20:28:44.977Z,44.77
2019-04-30T20:31:19.047Z,45.62
2019-04-30T20:33:53.713Z,44.86
2019-04-30T20:36:26.558Z,45.47
2019-04-30T20:38:58.926Z,45.46
2019-04-30T20:41:33.186Z,45.10
2019-04-30T20:44:06.374Z,45.18
2019-04-30T20:46:39.401Z,44.99
2019-04-30T20:49:12.448Z,45.70
2019-04-30T20:51:54.905Z,45.86
2019-04-30T20:54:19.450Z,46.38
2019-04-30T20:56:52.841Z,46.20
2019-04-30T20:59:25.540Z,46.48
2019-04-30T21:01:58.406Z,46.08
2019-04-30T21:04:32.425Z,47.04
2019-04-30T21:07:05.041Z,47.72
2019-04-30T21:09:37.778Z,46.94
2019-04-30T21:12:10.568Z,46.48
2019-04-30T21:14:43.223Z,47.85
2019-04-30T21:17:16.765Z,48.42
2019-04-30T21:19:49.425Z,48.19
2019-04-30T21:22:22.955Z,47.89
2019-04-30T21:24:56.114Z,48.95
2019-04-30T21:27:30.461Z,48.84
2019-04-30T21:30:03.803Z,48.47
2019-04-30T21:32:55.234Z,49.19
2019-04-30T21:35:27.606Z,49.49
2019-04-30T21:38:02.251Z,49.46
2019-04-30T21:40:36.691Z,49.98
2019-04-30T21:43:09.226Z,49.79
2019-04-30T21:45:41.917Z,49.88
2019-04-30T21:48:14.588Z,50.60
2019-04-30T21:50:49.598Z,49.83
2019-04-30T21:53:21.595Z,49.65
2019-04-30T21:55:54.258Z,50.59
2019-04-30T21:58:29.053Z,50.27
2019-04-30T22:01:05.470Z,50.52
2019-04-30T22:03:39.570Z,51.39
2019-04-30T22:06:12.364Z,51.37
2019-04-30T22:08:45.142Z,51.10
2019-04-30T22:11:19.633Z,51.14
2019-04-30T22:13:52.229Z,51.41
2019-04-30T22:16:25.114Z,51.16
2019-04-30T22:18:58.519Z,51.42
2019-04-30T22:21:31.205Z,50.94
2019-04-30T22:24:03.814Z,52.00
2019-04-30T22:26:37.773Z,52.22
2019-04-30T22:29:11.168Z,52.54
2019-04-30T22:31:43.862Z,51.71
2019-04-30T22:34:16.651Z,51.72
2019-04-30T22:36:50.423Z,52.20
2019-04-30T22:39:29.939Z,52.24
2019-04-30T22:42:32.047Z,52.64
2019-04-30T22:45:08.719Z,54.02
2019-04-30T22:47:41.498Z,52.63
2019-04-30T22:50:15.094Z,52.71
2019-04-30T22:52:47.869Z,53.58
2019-04-30T22:55:21.267Z,53.68
2019-04-30T22:57:54.456Z,53.93
2019-04-30T23:00:37.538Z,54.31
2019-04-30T23:03:11.810Z,54.10
2019-04-30T23:05:45.217Z,54.45
2019-04-30T23:08:17.986Z,53.99
2019-04-30T23:10:51.073Z,54.30
2019-04-30T23:13:24.072Z,54.28
2019-04-30T23:15:57.458Z,54.67
2019-04-30T23:18:32.356Z,54.63
2019-04-30T23:21:07.432Z,54.65
2019-04-30T23:23:40.321Z,54.60
2019-04-30T23:26:13.201Z,54.46
2019-04-30T23:28:45.867Z,54.83
2019-04-30T23:31:18.548Z,54.51
2019-04-30T23:33:51.636Z,54.98
2019-04-30T23:36:24.260Z,54.73
2019-04-30T23:38:57.301Z,54.87
2019-04-30T23:41:30.302Z,54.86
2019-04-30T23:44:02.974Z,54.91
2019-04-30T23:46:35.666Z,55.20
2019-04-30T23:49:08.443Z,55.40
2019-04-30T23:51:41.053Z,55.91
2019-04-30T23:54:14.930Z,55.36
2019-04-30T23:56:47.536Z,55.61
2019-04-30T23:59:20.211Z,55.33
